sensor_id;sensor_type;location;lat;lon;timestamp;temperature;humidity
47600;DHT22;33323;52.124;6.018;2022-12-26T00:01:20;9.20;99.90
47600;DHT22;33323;52.124;6.018;2022-12-26T00:03:48;9.20;99.90
47600;DHT22;33323;52.124;6.018;2022-12-26T00:06:19;9.20;99.90
47600;DHT22;33323;52.124;6.018;2022-12-26T00:08:47;9.20;99.90
47600;DHT22;33323;52.124;6.018;2022-12-26T00:11:15;9.20;99.90
47600;DHT22;33323;52.124;6.018;2022-12-26T00:13:43;9.20;99.90
47600;DHT22;33323;52.124;6.018;2022-12-26T00:16:17;9.20;99.90
47600;DHT22;33323;52.124;6.018;2022-12-26T00:18:46;9.20;99.90
47600;DHT22;33323;52.124;6.018;2022-12-26T00:21:15;9.20;99.90
47600;DHT22;33323;52.124;6.018;2022-12-26T00:23:44;9.20;99.90
47600;DHT22;33323;52.124;6.018;2022-12-26T00:26:18;9.20;99.90
47600;DHT22;33323;52.124;6.018;2022-12-26T00:28:47;9.20;99.90
47600;DHT22;33323;52.124;6.018;2022-12-26T00:31:20;9.20;99.90
47600;DHT22;33323;52.124;6.018;2022-12-26T00:33:48;9.20;99.90
47600;DHT22;33323;52.124;6.018;2022-12-26T00:36:21;9.20;99.90
47600;DHT22;33323;52.124;6.018;2022-12-26T00:38:50;9.20;99.90
47600;DHT22;33323;52.124;6.018;2022-12-26T00:41:19;9.30;99.90
47600;DHT22;33323;52.124;6.018;2022-12-26T00:43:47;9.20;99.90
47600;DHT22;33323;52.124;6.018;2022-12-26T00:46:16;9.20;99.90
47600;DHT22;33323;52.124;6.018;2022-12-26T00:48:44;9.20;99.90
47600;DHT22;33323;52.124;6.018;2022-12-26T00:51:13;9.20;99.90
47600;DHT22;33323;52.124;6.018;2022-12-26T00:53:40;9.20;99.90
47600;DHT22;33323;52.124;6.018;2022-12-26T00:56:08;9.20;99.90
47600;DHT22;33323;52.124;6.018;2022-12-26T00:58:35;9.20;99.90
47600;DHT22;33323;52.124;6.018;2022-12-26T01:01:15;9.20;99.90
47600;DHT22;33323;52.124;6.018;2022-12-26T01:03:45;9.20;99.90
47600;DHT22;33323;52.124;6.018;2022-12-26T01:06:13;9.20;99.90
47600;DHT22;33323;52.124;6.018;2022-12-26T01:08:41;9.20;99.90
47600;DHT22;33323;52.124;6.018;2022-12-26T01:11:10;9.20;99.90
47600;DHT22;33323;52.124;6.018;2022-12-26T01:13:38;9.20;99.90
47600;DHT22;33323;52.124;6.018;2022-12-26T01:16:06;9.20;99.90
47600;DHT22;33323;52.124;6.018;2022-12-26T01:18:34;9.20;99.90
47600;DHT22;33323;52.124;6.018;2022-12-26T01:21:04;9.20;99.90
47600;DHT22;33323;52.124;6.018;2022-12-26T01:23:33;9.20;99.90
47600;DHT22;33323;52.124;6.018;2022-12-26T01:26:00;9.20;99.90
47600;DHT22;33323;52.124;6.018;2022-12-26T01:28:49;9.20;99.90
47600;DHT22;33323;52.124;6.018;2022-12-26T01:31:18;9.20;99.90
47600;DHT22;33323;52.124;6.018;2022-12-26T01:33:46;9.20;99.90
47600;DHT22;33323;52.124;6.018;2022-12-26T01:36:14;9.20;99.90
47600;DHT22;33323;52.124;6.018;2022-12-26T01:38:42;9.20;99.90
47600;DHT22;33323;52.124;6.018;2022-12-26T01:41:11;9.30;99.90
47600;DHT22;33323;52.124;6.018;2022-12-26T01:44:03;9.30;99.90
47600;DHT22;33323;52.124;6.018;2022-12-26T01:46:41;9.20;99.90
47600;DHT22;33323;52.124;6.018;2022-12-26T01:49:17;9.20;99.90
47600;DHT22;33323;52.124;6.018;2022-12-26T01:51:52;9.30;99.90
47600;DHT22;33323;52.124;6.018;2022-12-26T01:54:24;9.30;99.90
47600;DHT22;33323;52.124;6.018;2022-12-26T01:57:30;9.30;99.90
47600;DHT22;33323;52.124;6.018;2022-12-26T02:00:00;9.20;99.90
47600;DHT22;33323;52.124;6.018;2022-12-26T02:02:40;9.20;99.90
47600;DHT22;33323;52.124;6.018;2022-12-26T02:05:27;9.20;99.90
47600;DHT22;33323;52.124;6.018;2022-12-26T02:10:47;9.30;99.90
47600;DHT22;33323;52.124;6.018;2022-12-26T02:13:18;9.30;99.90
47600;DHT22;33323;52.124;6.018;2022-12-26T02:15:46;9.30;99.90
47600;DHT22;33323;52.124;6.018;2022-12-26T02:18:13;9.30;99.90
47600;DHT22;33323;52.124;6.018;2022-12-26T02:27:21;9.30;99.90
47600;DHT22;33323;52.124;6.018;2022-12-26T02:36:36;9.40;99.90
47600;DHT22;33323;52.124;6.018;2022-12-26T02:40:14;9.30;99.90
47600;DHT22;33323;52.124;6.018;2022-12-26T02:42:42;9.40;99.90
47600;DHT22;33323;52.124;6.018;2022-12-26T02:45:29;9.30;99.90
47600;DHT22;33323;52.124;6.018;2022-12-26T02:48:38;9.40;99.90
47600;DHT22;33323;52.124;6.018;2022-12-26T02:51:39;9.30;99.90
47600;DHT22;33323;52.124;6.018;2022-12-26T02:54:52;9.30;99.90
47600;DHT22;33323;52.124;6.018;2022-12-26T02:57:57;9.30;99.90
47600;DHT22;33323;52.124;6.018;2022-12-26T03:00:45;9.30;99.90
47600;DHT22;33323;52.124;6.018;2022-12-26T03:03:33;9.30;99.90
47600;DHT22;33323;52.124;6.018;2022-12-26T03:06:26;9.30;99.90
47600;DHT22;33323;52.124;6.018;2022-12-26T03:09:25;9.30;99.90
47600;DHT22;33323;52.124;6.018;2022-12-26T03:15:18;9.30;99.90
47600;DHT22;33323;52.124;6.018;2022-12-26T03:17:53;9.30;99.90
47600;DHT22;33323;52.124;6.018;2022-12-26T03:20:26;9.30;99.90
47600;DHT22;33323;52.124;6.018;2022-12-26T03:23:13;9.20;99.90
47600;DHT22;33323;52.124;6.018;2022-12-26T03:26:00;9.30;99.90
47600;DHT22;33323;52.124;6.018;2022-12-26T03:28:49;9.20;99.90
47600;DHT22;33323;52.124;6.018;2022-12-26T03:31:16;9.30;99.90
47600;DHT22;33323;52.124;6.018;2022-12-26T03:33:45;9.20;99.90
47600;DHT22;33323;52.124;6.018;2022-12-26T03:43:13;9.00;99.90
47600;DHT22;33323;52.124;6.018;2022-12-26T03:46:16;9.00;99.90
47600;DHT22;33323;52.124;6.018;2022-12-26T03:49:15;8.90;99.90
47600;DHT22;33323;52.124;6.018;2022-12-26T03:52:22;8.90;99.90
47600;DHT22;33323;52.124;6.018;2022-12-26T04:01:11;8.90;99.90
47600;DHT22;33323;52.124;6.018;2022-12-26T04:04:03;8.90;99.90
47600;DHT22;33323;52.124;6.018;2022-12-26T04:06:56;8.90;99.90
47600;DHT22;33323;52.124;6.018;2022-12-26T04:09:49;8.90;99.90
47600;DHT22;33323;52.124;6.018;2022-12-26T04:12:40;9.00;99.90
47600;DHT22;33323;52.124;6.018;2022-12-26T04:15:39;8.90;99.90
47600;DHT22;33323;52.124;6.018;2022-12-26T04:19:02;8.90;99.90
47600;DHT22;33323;52.124;6.018;2022-12-26T04:22:16;9.00;99.90
47600;DHT22;33323;52.124;6.018;2022-12-26T04:28:18;9.00;99.90
47600;DHT22;33323;52.124;6.018;2022-12-26T04:31:12;9.00;99.90
47600;DHT22;33323;52.124;6.018;2022-12-26T04:34:08;8.90;99.90
47600;DHT22;33323;52.124;6.018;2022-12-26T04:37:04;9.00;99.90
47600;DHT22;33323;52.124;6.018;2022-12-26T04:39:53;8.90;99.90
47600;DHT22;33323;52.124;6.018;2022-12-26T04:42:42;8.90;99.90
47600;DHT22;33323;52.124;6.018;2022-12-26T04:45:50;9.00;99.90
47600;DHT22;33323;52.124;6.018;2022-12-26T04:48:18;8.90;99.90
47600;DHT22;33323;52.124;6.018;2022-12-26T04:51:03;8.90;99.90
47600;DHT22;33323;52.124;6.018;2022-12-26T04:53:31;8.90;99.90
47600;DHT22;33323;52.124;6.018;2022-12-26T04:55:58;8.80;99.90
47600;DHT22;33323;52.124;6.018;2022-12-26T04:58:25;8.80;99.90
47600;DHT22;33323;52.124;6.018;2022-12-26T05:00:54;8.80;99.90
47600;DHT22;33323;52.124;6.018;2022-12-26T05:03:41;8.80;99.90
47600;DHT22;33323;52.124;6.018;2022-12-26T05:06:27;8.90;99.90
47600;DHT22;33323;52.124;6.018;2022-12-26T05:09:14;8.90;99.90
47600;DHT22;33323;52.124;6.018;2022-12-26T05:12:07;8.90;99.90
47600;DHT22;33323;52.124;6.018;2022-12-26T05:14:35;8.90;99.90
47600;DHT22;33323;52.124;6.018;2022-12-26T05:17:04;8.90;99.90
47600;DHT22;33323;52.124;6.018;2022-12-26T05:19:50;9.00;99.90
47600;DHT22;33323;52.124;6.018;2022-12-26T05:22:39;8.90;99.90
47600;DHT22;33323;52.124;6.018;2022-12-26T05:25:32;8.90;99.90
47600;DHT22;33323;52.124;6.018;2022-12-26T05:28:21;8.90;99.90
47600;DHT22;33323;52.124;6.018;2022-12-26T05:31:08;8.90;99.90
47600;DHT22;33323;52.124;6.018;2022-12-26T05:33:35;8.90;99.90
47600;DHT22;33323;52.124;6.018;2022-12-26T05:36:22;8.80;99.90
47600;DHT22;33323;52.124;6.018;2022-12-26T05:38:51;8.80;99.90
47600;DHT22;33323;52.124;6.018;2022-12-26T05:41:19;8.80;99.90
47600;DHT22;33323;52.124;6.018;2022-12-26T05:43:46;8.80;99.90
47600;DHT22;33323;52.124;6.018;2022-12-26T05:46:13;8.80;99.90
47600;DHT22;33323;52.124;6.018;2022-12-26T05:48:40;8.80;99.90
47600;DHT22;33323;52.124;6.018;2022-12-26T05:51:07;8.80;99.90
47600;DHT22;33323;52.124;6.018;2022-12-26T05:53:35;8.70;99.90
47600;DHT22;33323;52.124;6.018;2022-12-26T05:56:07;8.70;99.90
47600;DHT22;33323;52.124;6.018;2022-12-26T05:58:39;8.70;99.90
47600;DHT22;33323;52.124;6.018;2022-12-26T06:01:18;8.70;99.90
47600;DHT22;33323;52.124;6.018;2022-12-26T06:03:49;8.70;99.90
47600;DHT22;33323;52.124;6.018;2022-12-26T06:06:18;8.60;99.90
47600;DHT22;33323;52.124;6.018;2022-12-26T06:08:47;8.70;99.90
47600;DHT22;33323;52.124;6.018;2022-12-26T06:11:15;8.60;99.90
47600;DHT22;33323;52.124;6.018;2022-12-26T06:13:44;8.60;99.90
47600;DHT22;33323;52.124;6.018;2022-12-26T06:16:13;8.60;99.90
47600;DHT22;33323;52.124;6.018;2022-12-26T06:18:42;8.70;99.90
47600;DHT22;33323;52.124;6.018;2022-12-26T06:21:12;8.60;99.90
47600;DHT22;33323;52.124;6.018;2022-12-26T06:23:41;8.60;99.90
47600;DHT22;33323;52.124;6.018;2022-12-26T06:26:09;8.60;99.90
47600;DHT22;33323;52.124;6.018;2022-12-26T06:28:38;8.60;99.90
47600;DHT22;33323;52.124;6.018;2022-12-26T06:31:09;8.50;99.90
47600;DHT22;33323;52.124;6.018;2022-12-26T06:33:39;8.50;99.90
47600;DHT22;33323;52.124;6.018;2022-12-26T06:36:09;8.50;99.90
47600;DHT22;33323;52.124;6.018;2022-12-26T06:38:37;8.50;99.90
47600;DHT22;33323;52.124;6.018;2022-12-26T06:41:06;8.40;99.90
47600;DHT22;33323;52.124;6.018;2022-12-26T06:43:34;8.50;99.90
47600;DHT22;33323;52.124;6.018;2022-12-26T06:46:03;8.50;99.90
47600;DHT22;33323;52.124;6.018;2022-12-26T06:48:31;8.50;99.90
47600;DHT22;33323;52.124;6.018;2022-12-26T06:51:13;8.50;99.90
47600;DHT22;33323;52.124;6.018;2022-12-26T06:53:42;8.40;99.90
47600;DHT22;33323;52.124;6.018;2022-12-26T06:56:15;8.50;99.90
47600;DHT22;33323;52.124;6.018;2022-12-26T06:58:43;8.50;99.90
47600;DHT22;33323;52.124;6.018;2022-12-26T07:01:17;8.50;99.90
47600;DHT22;33323;52.124;6.018;2022-12-26T07:03:45;8.50;99.90
47600;DHT22;33323;52.124;6.018;2022-12-26T07:06:36;8.50;99.90
47600;DHT22;33323;52.124;6.018;2022-12-26T07:09:12;8.50;99.90
47600;DHT22;33323;52.124;6.018;2022-12-26T07:11:43;8.50;99.90
47600;DHT22;33323;52.124;6.018;2022-12-26T07:14:11;8.50;99.90
47600;DHT22;33323;52.124;6.018;2022-12-26T07:16:40;8.40;99.90
47600;DHT22;33323;52.124;6.018;2022-12-26T07:19:10;8.40;99.90
47600;DHT22;33323;52.124;6.018;2022-12-26T07:21:38;8.40;99.90
47600;DHT22;33323;52.124;6.018;2022-12-26T07:24:14;8.50;99.90
47600;DHT22;33323;52.124;6.018;2022-12-26T07:26:43;8.50;99.90
47600;DHT22;33323;52.124;6.018;2022-12-26T07:29:11;8.50;99.90
47600;DHT22;33323;52.124;6.018;2022-12-26T07:31:39;8.50;99.90
47600;DHT22;33323;52.124;6.018;2022-12-26T07:34:07;8.50;99.90
47600;DHT22;33323;52.124;6.018;2022-12-26T07:36:34;8.50;99.90
47600;DHT22;33323;52.124;6.018;2022-12-26T07:39:01;8.40;99.90
47600;DHT22;33323;52.124;6.018;2022-12-26T07:41:28;8.40;99.90
47600;DHT22;33323;52.124;6.018;2022-12-26T07:44:14;8.40;99.90
47600;DHT22;33323;52.124;6.018;2022-12-26T07:46:42;8.40;99.90
47600;DHT22;33323;52.124;6.018;2022-12-26T07:49:11;8.50;99.90
47600;DHT22;33323;52.124;6.018;2022-12-26T07:51:40;8.40;99.90
47600;DHT22;33323;52.124;6.018;2022-12-26T07:54:07;8.40;99.90
47600;DHT22;33323;52.124;6.018;2022-12-26T07:56:38;8.40;99.90
47600;DHT22;33323;52.124;6.018;2022-12-26T07:59:10;8.40;99.90
47600;DHT22;33323;52.124;6.018;2022-12-26T08:01:40;8.40;99.90
47600;DHT22;33323;52.124;6.018;2022-12-26T08:04:08;8.50;99.90
47600;DHT22;33323;52.124;6.018;2022-12-26T08:06:37;8.50;99.90
47600;DHT22;33323;52.124;6.018;2022-12-26T08:09:05;8.50;99.90
47600;DHT22;33323;52.124;6.018;2022-12-26T08:11:33;8.50;99.90
47600;DHT22;33323;52.124;6.018;2022-12-26T08:14:01;8.50;99.90
47600;DHT22;33323;52.124;6.018;2022-12-26T08:16:28;8.50;99.90
47600;DHT22;33323;52.124;6.018;2022-12-26T08:18:56;8.60;99.90
47600;DHT22;33323;52.124;6.018;2022-12-26T08:21:23;8.60;99.90
47600;DHT22;33323;52.124;6.018;2022-12-26T08:23:51;8.60;99.90
47600;DHT22;33323;52.124;6.018;2022-12-26T08:26:18;8.70;99.90
47600;DHT22;33323;52.124;6.018;2022-12-26T08:28:50;8.80;99.90
47600;DHT22;33323;52.124;6.018;2022-12-26T08:31:18;8.70;99.90
47600;DHT22;33323;52.124;6.018;2022-12-26T08:33:46;8.80;99.90
47600;DHT22;33323;52.124;6.018;2022-12-26T08:36:14;8.90;99.90
47600;DHT22;33323;52.124;6.018;2022-12-26T08:38:45;9.00;99.90
47600;DHT22;33323;52.124;6.018;2022-12-26T08:41:12;9.00;99.90
47600;DHT22;33323;52.124;6.018;2022-12-26T08:43:39;9.10;99.90
47600;DHT22;33323;52.124;6.018;2022-12-26T08:46:26;9.10;99.90
47600;DHT22;33323;52.124;6.018;2022-12-26T08:48:53;9.20;99.90
47600;DHT22;33323;52.124;6.018;2022-12-26T08:51:22;9.30;99.90
47600;DHT22;33323;52.124;6.018;2022-12-26T08:53:51;9.30;99.90
47600;DHT22;33323;52.124;6.018;2022-12-26T08:56:25;9.30;99.90
47600;DHT22;33323;52.124;6.018;2022-12-26T08:58:52;9.40;99.90
47600;DHT22;33323;52.124;6.018;2022-12-26T09:01:25;9.50;99.90
47600;DHT22;33323;52.124;6.018;2022-12-26T09:04:00;9.50;99.90
47600;DHT22;33323;52.124;6.018;2022-12-26T09:06:30;9.60;99.90
47600;DHT22;33323;52.124;6.018;2022-12-26T09:09:00;9.50;99.90
47600;DHT22;33323;52.124;6.018;2022-12-26T09:11:27;9.50;99.90
47600;DHT22;33323;52.124;6.018;2022-12-26T09:13:57;9.60;99.90
47600;DHT22;33323;52.124;6.018;2022-12-26T09:16:29;9.60;99.90
47600;DHT22;33323;52.124;6.018;2022-12-26T09:19:05;9.60;99.90
47600;DHT22;33323;52.124;6.018;2022-12-26T09:21:32;9.60;99.90
47600;DHT22;33323;52.124;6.018;2022-12-26T09:24:02;9.50;99.90
47600;DHT22;33323;52.124;6.018;2022-12-26T09:26:31;9.50;99.90
47600;DHT22;33323;52.124;6.018;2022-12-26T09:28:58;9.50;99.90
47600;DHT22;33323;52.124;6.018;2022-12-26T09:31:27;9.60;99.90
47600;DHT22;33323;52.124;6.018;2022-12-26T09:33:56;9.70;99.90
47600;DHT22;33323;52.124;6.018;2022-12-26T09:36:28;9.80;99.90
47600;DHT22;33323;52.124;6.018;2022-12-26T09:38:57;9.70;99.90
47600;DHT22;33323;52.124;6.018;2022-12-26T09:41:30;9.70;99.90
47600;DHT22;33323;52.124;6.018;2022-12-26T09:46:50;9.60;99.90
47600;DHT22;33323;52.124;6.018;2022-12-26T09:49:28;9.60;99.90
47600;DHT22;33323;52.124;6.018;2022-12-26T09:52:07;9.50;99.90
47600;DHT22;33323;52.124;6.018;2022-12-26T09:54:49;9.50;99.90
47600;DHT22;33323;52.124;6.018;2022-12-26T09:57:35;9.40;99.90
47600;DHT22;33323;52.124;6.018;2022-12-26T10:00:10;9.40;99.90
47600;DHT22;33323;52.124;6.018;2022-12-26T10:02:51;9.40;99.90
47600;DHT22;33323;52.124;6.018;2022-12-26T10:05:22;9.30;99.90
47600;DHT22;33323;52.124;6.018;2022-12-26T10:07:58;9.30;99.90
47600;DHT22;33323;52.124;6.018;2022-12-26T10:10:43;9.10;99.90
47600;DHT22;33323;52.124;6.018;2022-12-26T10:13:17;9.10;99.90
47600;DHT22;33323;52.124;6.018;2022-12-26T10:16:04;9.10;99.90
47600;DHT22;33323;52.124;6.018;2022-12-26T10:24:56;9.10;99.90
47600;DHT22;33323;52.124;6.018;2022-12-26T10:27:26;9.00;99.90
47600;DHT22;33323;52.124;6.018;2022-12-26T10:30:03;9.10;99.90
47600;DHT22;33323;52.124;6.018;2022-12-26T10:32:43;9.00;99.90
47600;DHT22;33323;52.124;6.018;2022-12-26T10:35:41;9.00;99.90
47600;DHT22;33323;52.124;6.018;2022-12-26T10:38:26;9.00;99.90
47600;DHT22;33323;52.124;6.018;2022-12-26T10:41:05;9.00;99.90
47600;DHT22;33323;52.124;6.018;2022-12-26T10:43:46;9.00;99.90
47600;DHT22;33323;52.124;6.018;2022-12-26T10:49:13;8.70;99.90
47600;DHT22;33323;52.124;6.018;2022-12-26T10:51:42;8.40;99.90
47600;DHT22;33323;52.124;6.018;2022-12-26T10:54:14;8.30;99.90
47600;DHT22;33323;52.124;6.018;2022-12-26T10:56:45;8.10;99.90
47600;DHT22;33323;52.124;6.018;2022-12-26T10:59:21;8.20;99.90
47600;DHT22;33323;52.124;6.018;2022-12-26T11:02:24;8.10;99.90
47600;DHT22;33323;52.124;6.018;2022-12-26T11:05:09;8.10;99.90
47600;DHT22;33323;52.124;6.018;2022-12-26T11:08:08;8.00;99.90
47600;DHT22;33323;52.124;6.018;2022-12-26T11:10:46;7.80;99.90
47600;DHT22;33323;52.124;6.018;2022-12-26T11:13:31;7.80;99.90
47600;DHT22;33323;52.124;6.018;2022-12-26T11:16:03;7.60;99.90
47600;DHT22;33323;52.124;6.018;2022-12-26T11:18:38;7.70;99.90
47600;DHT22;33323;52.124;6.018;2022-12-26T11:21:24;7.80;99.90
47600;DHT22;33323;52.124;6.018;2022-12-26T11:26:34;7.70;99.90
47600;DHT22;33323;52.124;6.018;2022-12-26T11:31:53;7.70;99.90
47600;DHT22;33323;52.124;6.018;2022-12-26T11:34:39;7.70;99.90
47600;DHT22;33323;52.124;6.018;2022-12-26T11:37:30;7.80;99.90
47600;DHT22;33323;52.124;6.018;2022-12-26T11:40:02;7.80;99.90
47600;DHT22;33323;52.124;6.018;2022-12-26T11:42:30;7.90;99.90
47600;DHT22;33323;52.124;6.018;2022-12-26T11:44:58;7.80;99.90
47600;DHT22;33323;52.124;6.018;2022-12-26T11:47:26;7.70;99.90
47600;DHT22;33323;52.124;6.018;2022-12-26T11:49:58;7.60;99.90
47600;DHT22;33323;52.124;6.018;2022-12-26T11:52:40;7.60;99.90
47600;DHT22;33323;52.124;6.018;2022-12-26T12:00:42;7.30;99.90
47600;DHT22;33323;52.124;6.018;2022-12-26T12:03:17;7.40;99.90
47600;DHT22;33323;52.124;6.018;2022-12-26T12:09:01;7.60;99.90
47600;DHT22;33323;52.124;6.018;2022-12-26T12:21:44;7.80;99.90
47600;DHT22;33323;52.124;6.018;2022-12-26T12:27:49;8.00;99.90
47600;DHT22;33323;52.124;6.018;2022-12-26T12:58:50;7.90;99.90
47600;DHT22;33323;52.124;6.018;2022-12-26T13:01:24;7.90;99.90
47600;DHT22;33323;52.124;6.018;2022-12-26T13:04:12;7.80;99.90
47600;DHT22;33323;52.124;6.018;2022-12-26T13:09:28;7.60;99.90
47600;DHT22;33323;52.124;6.018;2022-12-26T13:12:23;7.60;99.90
47600;DHT22;33323;52.124;6.018;2022-12-26T13:15:04;7.60;99.90
47600;DHT22;33323;52.124;6.018;2022-12-26T13:17:51;7.60;99.90
47600;DHT22;33323;52.124;6.018;2022-12-26T13:20:28;7.50;99.90
47600;DHT22;33323;52.124;6.018;2022-12-26T13:23:04;7.50;99.90
47600;DHT22;33323;52.124;6.018;2022-12-26T13:26:10;7.50;99.90
47600;DHT22;33323;52.124;6.018;2022-12-26T13:31:46;7.50;99.90
47600;DHT22;33323;52.124;6.018;2022-12-26T13:34:18;7.50;99.90
47600;DHT22;33323;52.124;6.018;2022-12-26T13:39:33;7.50;99.90
47600;DHT22;33323;52.124;6.018;2022-12-26T13:42:17;7.50;99.90
47600;DHT22;33323;52.124;6.018;2022-12-26T13:51:03;7.40;99.90
47600;DHT22;33323;52.124;6.018;2022-12-26T13:53:33;7.40;99.90
47600;DHT22;33323;52.124;6.018;2022-12-26T13:59:15;7.30;99.90
47600;DHT22;33323;52.124;6.018;2022-12-26T14:16:41;6.90;99.90
47600;DHT22;33323;52.124;6.018;2022-12-26T14:22:35;6.80;99.90
47600;DHT22;33323;52.124;6.018;2022-12-26T14:28:19;6.70;99.90
47600;DHT22;33323;52.124;6.018;2022-12-26T14:33:39;6.60;99.90
47600;DHT22;33323;52.124;6.018;2022-12-26T14:36:35;6.50;99.90
47600;DHT22;33323;52.124;6.018;2022-12-26T14:44:57;6.40;99.90
47600;DHT22;33323;52.124;6.018;2022-12-26T14:47:41;6.40;99.90
47600;DHT22;33323;52.124;6.018;2022-12-26T14:50:36;6.20;99.90
47600;DHT22;33323;52.124;6.018;2022-12-26T14:58:36;6.20;99.90
47600;DHT22;33323;52.124;6.018;2022-12-26T15:28:04;5.80;99.90
47600;DHT22;33323;52.124;6.018;2022-12-26T15:31:25;5.70;99.90
47600;DHT22;33323;52.124;6.018;2022-12-26T15:40:31;5.70;99.90
47600;DHT22;33323;52.124;6.018;2022-12-26T15:46:17;5.60;99.90
47600;DHT22;33323;52.124;6.018;2022-12-26T16:01:01;5.10;99.90
47600;DHT22;33323;52.124;6.018;2022-12-26T16:03:40;5.10;99.90
47600;DHT22;33323;52.124;6.018;2022-12-26T16:12:00;4.80;99.90
47600;DHT22;33323;52.124;6.018;2022-12-26T16:14:31;4.70;99.90
47600;DHT22;33323;52.124;6.018;2022-12-26T16:19:43;4.70;99.90
47600;DHT22;33323;52.124;6.018;2022-12-26T16:26:00;4.60;99.90
47600;DHT22;33323;52.124;6.018;2022-12-26T16:28:40;4.60;99.90
47600;DHT22;33323;52.124;6.018;2022-12-26T16:32:06;4.50;99.90
47600;DHT22;33323;52.124;6.018;2022-12-26T16:34:34;4.40;99.90
47600;DHT22;33323;52.124;6.018;2022-12-26T16:37:02;4.40;99.90
47600;DHT22;33323;52.124;6.018;2022-12-26T16:39:29;4.40;99.90
47600;DHT22;33323;52.124;6.018;2022-12-26T16:42:04;4.30;99.90
47600;DHT22;33323;52.124;6.018;2022-12-26T16:44:38;4.30;99.90
47600;DHT22;33323;52.124;6.018;2022-12-26T16:47:10;4.20;99.90
47600;DHT22;33323;52.124;6.018;2022-12-26T16:49:38;4.10;99.90
47600;DHT22;33323;52.124;6.018;2022-12-26T16:52:29;4.10;99.90
47600;DHT22;33323;52.124;6.018;2022-12-26T16:55:23;4.00;99.90
47600;DHT22;33323;52.124;6.018;2022-12-26T16:58:01;4.00;99.90
47600;DHT22;33323;52.124;6.018;2022-12-26T17:00:37;3.90;99.90
47600;DHT22;33323;52.124;6.018;2022-12-26T17:03:09;3.90;99.90
47600;DHT22;33323;52.124;6.018;2022-12-26T17:06:45;3.90;99.90
47600;DHT22;33323;52.124;6.018;2022-12-26T17:12:50;3.80;99.90
47600;DHT22;33323;52.124;6.018;2022-12-26T17:15:29;3.70;99.90
47600;DHT22;33323;52.124;6.018;2022-12-26T17:20:55;3.70;99.90
47600;DHT22;33323;52.124;6.018;2022-12-26T17:24:23;3.60;99.90
47600;DHT22;33323;52.124;6.018;2022-12-26T17:27:16;3.60;99.90
47600;DHT22;33323;52.124;6.018;2022-12-26T17:29:56;3.60;99.90
47600;DHT22;33323;52.124;6.018;2022-12-26T17:35:33;3.60;99.90
47600;DHT22;33323;52.124;6.018;2022-12-26T17:38:23;3.50;99.90
47600;DHT22;33323;52.124;6.018;2022-12-26T17:40:54;3.40;99.90
47600;DHT22;33323;52.124;6.018;2022-12-26T17:43:47;3.50;99.90
47600;DHT22;33323;52.124;6.018;2022-12-26T17:47:21;3.40;99.90
47600;DHT22;33323;52.124;6.018;2022-12-26T17:49:51;3.50;99.90
47600;DHT22;33323;52.124;6.018;2022-12-26T17:52:22;3.40;99.90
47600;DHT22;33323;52.124;6.018;2022-12-26T17:54:55;3.40;99.90
47600;DHT22;33323;52.124;6.018;2022-12-26T17:57:56;3.30;99.90
47600;DHT22;33323;52.124;6.018;2022-12-26T18:03:39;3.40;99.90
47600;DHT22;33323;52.124;6.018;2022-12-26T18:06:06;3.30;99.90
47600;DHT22;33323;52.124;6.018;2022-12-26T18:08:38;3.30;99.90
47600;DHT22;33323;52.124;6.018;2022-12-26T18:11:09;3.20;99.90
47600;DHT22;33323;52.124;6.018;2022-12-26T18:13:37;3.20;99.90
47600;DHT22;33323;52.124;6.018;2022-12-26T18:16:05;3.20;99.90
47600;DHT22;33323;52.124;6.018;2022-12-26T18:18:36;3.20;99.90
47600;DHT22;33323;52.124;6.018;2022-12-26T18:21:07;3.20;99.90
47600;DHT22;33323;52.124;6.018;2022-12-26T18:23:36;3.20;99.90
47600;DHT22;33323;52.124;6.018;2022-12-26T18:26:07;3.10;99.90
47600;DHT22;33323;52.124;6.018;2022-12-26T18:28:39;3.10;99.90
47600;DHT22;33323;52.124;6.018;2022-12-26T18:31:08;3.00;99.90
47600;DHT22;33323;52.124;6.018;2022-12-26T18:33:39;3.10;99.90
47600;DHT22;33323;52.124;6.018;2022-12-26T18:36:13;3.10;99.90
47600;DHT22;33323;52.124;6.018;2022-12-26T18:47:28;3.30;99.90
47600;DHT22;33323;52.124;6.018;2022-12-26T18:49:55;3.30;99.90
47600;DHT22;33323;52.124;6.018;2022-12-26T18:52:29;3.30;99.90
47600;DHT22;33323;52.124;6.018;2022-12-26T19:01:02;3.50;99.90
47600;DHT22;33323;52.124;6.018;2022-12-26T19:07:25;3.70;99.90
47600;DHT22;33323;52.124;6.018;2022-12-26T19:19:35;3.80;99.90
47600;DHT22;33323;52.124;6.018;2022-12-26T19:22:03;3.70;99.90
47600;DHT22;33323;52.124;6.018;2022-12-26T19:24:31;3.70;99.90
47600;DHT22;33323;52.124;6.018;2022-12-26T19:27:01;3.60;99.90
47600;DHT22;33323;52.124;6.018;2022-12-26T19:29:28;3.50;99.90
47600;DHT22;33323;52.124;6.018;2022-12-26T19:31:55;3.50;99.90
47600;DHT22;33323;52.124;6.018;2022-12-26T19:46:09;3.80;99.90
47600;DHT22;33323;52.124;6.018;2022-12-26T19:48:40;3.70;99.90
47600;DHT22;33323;52.124;6.018;2022-12-26T19:53:56;3.80;99.90
47600;DHT22;33323;52.124;6.018;2022-12-26T19:56:26;3.80;99.90
47600;DHT22;33323;52.124;6.018;2022-12-26T19:58:54;3.90;99.90
47600;DHT22;33323;52.124;6.018;2022-12-26T20:01:28;3.90;99.90
47600;DHT22;33323;52.124;6.018;2022-12-26T20:03:58;3.90;99.90
47600;DHT22;33323;52.124;6.018;2022-12-26T20:06:29;3.90;99.90
47600;DHT22;33323;52.124;6.018;2022-12-26T20:09:01;3.80;99.90
47600;DHT22;33323;52.124;6.018;2022-12-26T20:11:38;3.80;99.90
47600;DHT22;33323;52.124;6.018;2022-12-26T20:14:09;3.70;99.90
47600;DHT22;33323;52.124;6.018;2022-12-26T20:16:38;3.80;99.90
47600;DHT22;33323;52.124;6.018;2022-12-26T20:19:26;3.70;99.90
47600;DHT22;33323;52.124;6.018;2022-12-26T21:14:32;3.60;99.90
47600;DHT22;33323;52.124;6.018;2022-12-26T21:16:59;3.60;99.90
47600;DHT22;33323;52.124;6.018;2022-12-26T21:25:18;3.80;99.90
47600;DHT22;33323;52.124;6.018;2022-12-26T21:27:45;3.80;99.90
47600;DHT22;33323;52.124;6.018;2022-12-26T21:30:15;3.80;99.90
47600;DHT22;33323;52.124;6.018;2022-12-26T21:32:45;3.80;99.90
47600;DHT22;33323;52.124;6.018;2022-12-26T21:35:12;3.80;99.90
47600;DHT22;33323;52.124;6.018;2022-12-26T21:37:39;3.70;99.90
47600;DHT22;33323;52.124;6.018;2022-12-26T21:40:19;3.70;99.90
47600;DHT22;33323;52.124;6.018;2022-12-26T21:52:11;3.80;99.90
47600;DHT22;33323;52.124;6.018;2022-12-26T21:54:38;3.70;99.90
47600;DHT22;33323;52.124;6.018;2022-12-26T21:57:24;3.80;99.90
47600;DHT22;33323;52.124;6.018;2022-12-26T21:59:51;3.80;99.90
47600;DHT22;33323;52.124;6.018;2022-12-26T22:02:35;3.80;99.90
47600;DHT22;33323;52.124;6.018;2022-12-26T22:05:25;3.80;99.90
47600;DHT22;33323;52.124;6.018;2022-12-26T22:07:56;3.70;99.90
47600;DHT22;33323;52.124;6.018;2022-12-26T22:22:01;3.60;99.90
47600;DHT22;33323;52.124;6.018;2022-12-26T22:24:28;3.60;99.90
47600;DHT22;33323;52.124;6.018;2022-12-26T22:26:55;3.70;99.90
47600;DHT22;33323;52.124;6.018;2022-12-26T22:29:22;3.60;99.90
47600;DHT22;33323;52.124;6.018;2022-12-26T22:31:49;3.60;99.90
47600;DHT22;33323;52.124;6.018;2022-12-26T22:34:16;3.60;99.90